Time;durP1;ratioP1;P1;durP2;ratioP2;P2;SDS_P1;SDS_P2;PMS_P1;PMS_P2;Temp;Humidity;BMP_temperature;BMP_pressure;BME280_temperature;BME280_humidity;BME280_pressure;Samples;Min_cycle;Max_cycle;Signal;HPM_P1;HPM_P2
2024/03/21 00:01:33;;;;;;;22.05;16.38;;;13.00;99.90;;;;;;5039611;28;20397;-83
2024/03/21 00:04:02;;;;;;;22.70;17.15;;;13.00;99.90;;;;;;5039518;28;20071;-87
2024/03/21 00:06:31;;;;;;;23.08;17.80;;;13.00;99.90;;;;;;5063995;28;20013;-86
2024/03/21 00:08:57;;;;;;;23.85;17.05;;;13.00;99.90;;;;;;5078518;28;20076;-86
2024/03/21 00:11:23;;;;;;;27.63;18.48;;;13.00;99.90;;;;;;5063134;28;20009;-85
2024/03/21 00:13:49;;;;;;;21.67;16.17;;;13.00;99.90;;;;;;5062250;28;20013;-85
2024/03/21 00:16:14;;;;;;;24.42;18.40;;;12.90;99.90;;;;;;5062924;28;20088;-86
2024/03/21 00:18:42;;;;;;;21.58;17.02;;;12.90;99.90;;;;;;5045736;28;20044;-83
2024/03/21 00:21:07;;;;;;;24.60;17.48;;;12.90;99.90;;;;;;5040319;28;20021;-86
2024/03/21 00:23:33;;;;;;;24.65;17.95;;;12.90;99.90;;;;;;5038817;28;20036;-86
2024/03/21 00:26:03;;;;;;;23.15;17.63;;;12.80;99.90;;;;;;5022220;28;20041;-86
2024/03/21 00:28:29;;;;;;;20.13;16.65;;;12.80;99.90;;;;;;5038614;28;20111;-87
2024/03/21 00:30:56;;;;;;;23.42;18.60;;;12.80;99.90;;;;;;5038449;28;20025;-86
2024/03/21 00:33:25;;;;;;;25.92;18.52;;;12.80;99.90;;;;;;5038419;28;20132;-87
2024/03/21 00:35:51;;;;;;;23.67;17.33;;;12.80;99.90;;;;;;5056605;28;20025;-87
2024/03/21 00:38:17;;;;;;;22.48;17.92;;;12.70;99.90;;;;;;5038739;28;20021;-86
2024/03/21 00:40:43;;;;;;;23.35;17.35;;;12.80;99.90;;;;;;5022279;28;20094;-86
2024/03/21 00:43:09;;;;;;;25.08;18.23;;;12.80;99.90;;;;;;5056125;28;20465;-86
2024/03/21 00:45:37;;;;;;;27.50;18.05;;;12.80;99.90;;;;;;5021342;28;20025;-85
2024/03/21 00:48:03;;;;;;;21.10;16.85;;;12.80;99.90;;;;;;5021016;28;20473;-86
2024/03/21 00:50:30;;;;;;;24.00;17.98;;;12.80;99.90;;;;;;5021606;28;20477;-87
2024/03/21 00:52:55;;;;;;;23.65;17.73;;;12.80;99.90;;;;;;5021095;28;20040;-86
2024/03/21 00:55:21;;;;;;;28.65;18.98;;;12.80;99.90;;;;;;5037848;28;20116;-86
2024/03/21 00:57:47;;;;;;;24.45;17.77;;;12.80;99.90;;;;;;5037806;28;20037;-88
2024/03/21 01:00:13;;;;;;;23.05;17.83;;;12.80;99.90;;;;;;5021450;28;20127;-86
2024/03/21 01:02:42;;;;;;;25.05;17.55;;;12.80;99.90;;;;;;5020916;28;20115;-86
2024/03/21 01:05:10;;;;;;;23.73;17.92;;;12.70;99.90;;;;;;5037088;28;20083;-86
2024/03/21 01:07:36;;;;;;;22.63;17.42;;;12.80;99.90;;;;;;5037795;28;20033;-87
2024/03/21 01:10:03;;;;;;;24.33;17.30;;;12.80;99.90;;;;;;5055242;28;20112;-87
2024/03/21 01:12:31;;;;;;;22.27;18.33;;;12.80;99.90;;;;;;5037086;28;20079;-87
2024/03/21 01:14:57;;;;;;;26.05;18.35;;;12.80;99.90;;;;;;5037741;28;20361;-87
2024/03/21 01:17:23;;;;;;;26.88;18.52;;;12.80;99.90;;;;;;5020964;28;20028;-86
2024/03/21 01:19:49;;;;;;;26.00;18.48;;;12.70;99.90;;;;;;5036887;28;20136;-86
2024/03/21 01:22:14;;;;;;;25.23;18.63;;;12.70;99.90;;;;;;5036883;28;20412;-86
2024/03/21 01:24:43;;;;;;;24.42;18.63;;;12.70;99.90;;;;;;5037112;28;20029;-86
2024/03/21 01:27:10;;;;;;;25.42;19.73;;;12.70;99.90;;;;;;5020836;28;20025;-87
2024/03/21 01:29:36;;;;;;;25.00;18.98;;;12.70;99.90;;;;;;5037218;28;20446;-86
2024/03/21 01:32:01;;;;;;;27.00;19.73;;;12.70;99.90;;;;;;5020787;28;20056;-86
2024/03/21 01:34:27;;;;;;;23.85;17.95;;;12.60;99.90;;;;;;5037037;28;20021;-86
2024/03/21 01:36:53;;;;;;;23.85;18.40;;;12.60;99.90;;;;;;5020434;28;20025;-86
2024/03/21 01:39:21;;;;;;;25.70;19.23;;;12.60;99.90;;;;;;5037420;28;20039;-86
2024/03/21 01:41:47;;;;;;;23.15;19.02;;;12.60;99.90;;;;;;5037600;28;20268;-86
2024/03/21 01:44:19;;;;;;;23.23;18.45;;;12.60;99.90;;;;;;5037819;28;20492;-87
2024/03/21 01:46:46;;;;;;;23.23;17.83;;;12.50;99.90;;;;;;5024296;28;20159;-85
2024/03/21 01:49:12;;;;;;;25.90;18.35;;;12.50;99.90;;;;;;5044816;28;20049;-86
2024/03/21 01:51:39;;;;;;;27.35;19.40;;;12.50;99.90;;;;;;5060779;28;20400;-86
2024/03/21 01:54:07;;;;;;;26.85;19.65;;;12.50;99.90;;;;;;5078219;28;20017;-85
2024/03/21 01:56:37;;;;;;;25.20;19.95;;;12.40;99.90;;;;;;5073838;28;20092;-86
2024/03/21 01:59:06;;;;;;;25.88;19.88;;;12.50;99.90;;;;;;5021115;28;20029;-85
2024/03/21 02:01:32;;;;;;;24.08;18.92;;;12.40;99.90;;;;;;5036731;28;20384;-87
2024/03/21 02:04:00;;;;;;;28.42;21.15;;;12.40;99.90;;;;;;5019906;28;20052;-86
2024/03/21 02:06:31;;;;;;;28.25;20.90;;;12.40;99.90;;;;;;5036482;28;20067;-87
2024/03/21 02:08:58;;;;;;;28.40;21.35;;;12.40;99.90;;;;;;5054146;28;20029;-86
2024/03/21 02:11:24;;;;;;;28.02;21.20;;;12.30;99.90;;;;;;5054327;28;20438;-87
2024/03/21 02:13:53;;;;;;;28.65;21.17;;;12.40;99.90;;;;;;5036474;28;20108;-86
2024/03/21 02:16:19;;;;;;;29.92;21.52;;;12.40;99.90;;;;;;5036508;28;20025;-86
2024/03/21 02:18:45;;;;;;;27.48;21.15;;;12.40;99.90;;;;;;5036320;28;20070;-86
2024/03/21 02:23:55;;;;;;;26.88;20.70;;;12.30;99.90;;;;;;5039798;28;20036;-85
2024/03/21 02:26:23;;;;;;;28.50;20.77;;;12.30;99.90;;;;;;5020909;28;20354;-86
2024/03/21 02:28:52;;;;;;;28.95;21.58;;;12.30;99.90;;;;;;5020405;28;20029;-86
2024/03/21 02:31:19;;;;;;;29.10;21.92;;;12.30;99.90;;;;;;5019714;28;20450;-86
2024/03/21 02:33:45;;;;;;;30.48;22.83;;;12.30;99.90;;;;;;5019974;28;20373;-86
2024/03/21 02:36:10;;;;;;;29.85;21.83;;;12.20;99.90;;;;;;5019946;28;20029;-86
2024/03/21 02:38:36;;;;;;;28.20;22.48;;;12.20;99.90;;;;;;5019622;28;20029;-86
2024/03/21 02:41:02;;;;;;;27.15;21.98;;;12.20;99.90;;;;;;5019714;28;20120;-86
2024/03/21 02:43:27;;;;;;;29.45;21.27;;;12.30;99.90;;;;;;5035857;28;20572;-87
2024/03/21 02:45:53;;;;;;;28.13;21.27;;;12.30;99.90;;;;;;5036286;28;20026;-87
2024/03/21 02:48:19;;;;;;;26.45;21.10;;;12.30;99.90;;;;;;5053998;28;20064;-85
2024/03/21 02:50:44;;;;;;;28.02;21.42;;;12.30;99.90;;;;;;5054423;28;20029;-87
2024/03/21 02:53:10;;;;;;;25.60;19.75;;;12.30;99.90;;;;;;5019714;28;20029;-86
2024/03/21 02:55:38;;;;;;;23.45;19.65;;;12.30;99.90;;;;;;5037017;28;20029;-86
2024/03/21 02:58:03;;;;;;;26.58;19.85;;;12.30;99.90;;;;;;5046893;28;20028;-84
2024/03/21 03:00:29;;;;;;;24.73;19.33;;;12.30;99.90;;;;;;5047863;28;20086;-86
2024/03/21 03:02:55;;;;;;;25.65;18.63;;;12.30;99.90;;;;;;5045672;28;20025;-86
2024/03/21 03:05:21;;;;;;;25.83;17.35;;;12.40;99.90;;;;;;5043825;28;20040;-86
2024/03/21 03:07:46;;;;;;;23.85;17.48;;;12.40;99.90;;;;;;5040490;28;20025;-86
2024/03/21 03:10:14;;;;;;;21.67;15.95;;;12.30;99.90;;;;;;5040138;28;20456;-85
2024/03/21 03:12:39;;;;;;;24.25;17.02;;;12.40;99.90;;;;;;5039902;28;20025;-86
2024/03/21 03:15:05;;;;;;;22.08;16.60;;;12.30;99.90;;;;;;5023496;28;20056;-84
2024/03/21 03:17:31;;;;;;;21.35;16.65;;;12.30;99.90;;;;;;5023690;28;20029;-86
2024/03/21 03:19:57;;;;;;;19.83;16.52;;;12.30;99.90;;;;;;5023840;28;20386;-86
2024/03/21 03:22:22;;;;;;;20.50;15.68;;;12.30;99.90;;;;;;5048769;28;20073;-86
2024/03/21 03:24:48;;;;;;;21.77;15.85;;;12.30;99.90;;;;;;5063937;28;20017;-86
2024/03/21 03:27:14;;;;;;;21.33;16.95;;;12.30;99.90;;;;;;5063794;28;20069;-86
2024/03/21 03:29:39;;;;;;;21.58;16.52;;;12.30;99.90;;;;;;5064007;28;20044;-86
2024/03/21 03:32:05;;;;;;;21.88;16.60;;;12.20;99.90;;;;;;5057587;28;20029;-85
2024/03/21 03:37:16;;;;;;;23.15;17.20;;;12.20;99.90;;;;;;5043957;28;20107;-84
2024/03/21 03:39:42;;;;;;;22.63;17.52;;;12.20;99.90;;;;;;5027689;28;20527;-85
2024/03/21 03:42:08;;;;;;;24.70;17.30;;;12.10;99.90;;;;;;5028345;28;20021;-87
2024/03/21 03:44:33;;;;;;;24.95;17.77;;;12.10;99.90;;;;;;5028533;28;20021;-85
2024/03/21 03:46:59;;;;;;;23.00;17.55;;;12.10;99.90;;;;;;5046170;28;20086;-87
2024/03/21 03:49:25;;;;;;;22.50;15.70;;;12.00;99.90;;;;;;5063462;28;20036;-87
2024/03/21 03:51:50;;;;;;;21.35;17.55;;;12.00;99.90;;;;;;5044835;28;20033;-85
2024/03/21 03:54:16;;;;;;;23.63;17.80;;;11.90;99.90;;;;;;5044578;28;20030;-87
2024/03/21 03:56:42;;;;;;;24.35;18.77;;;11.90;99.90;;;;;;5027511;28;20029;-86
2024/03/21 03:59:08;;;;;;;23.27;17.92;;;11.80;99.90;;;;;;5042069;28;20090;-86
2024/03/21 04:01:33;;;;;;;24.95;18.05;;;11.80;99.90;;;;;;5039418;28;20029;-87
2024/03/21 04:03:59;;;;;;;27.08;18.98;;;11.80;99.90;;;;;;5039379;28;20053;-87
2024/03/21 04:06:25;;;;;;;25.17;19.38;;;11.80;99.90;;;;;;5022816;28;20029;-87
2024/03/21 04:08:50;;;;;;;24.80;19.42;;;11.80;99.90;;;;;;5038932;28;20037;-86
2024/03/21 04:11:17;;;;;;;26.40;18.90;;;11.80;99.90;;;;;;5021946;28;20369;-87
2024/03/21 04:13:42;;;;;;;26.33;19.33;;;11.80;99.90;;;;;;5022263;28;20025;-87
2024/03/21 04:16:13;;;;;;;25.83;19.08;;;11.70;99.90;;;;;;5039315;28;20032;-87
2024/03/21 04:18:39;;;;;;;23.20;18.45;;;11.80;99.90;;;;;;5039076;28;20049;-86
2024/03/21 04:21:04;;;;;;;24.13;18.38;;;11.80;99.90;;;;;;5022171;28;20397;-86
2024/03/21 04:23:30;;;;;;;23.48;19.80;;;11.80;99.90;;;;;;5038878;28;20457;-86
2024/03/21 04:25:56;;;;;;;26.48;20.10;;;11.90;99.90;;;;;;5021988;28;20557;-85
2024/03/21 04:28:21;;;;;;;22.95;18.77;;;11.80;99.90;;;;;;5021817;28;20029;-86
2024/03/21 04:30:47;;;;;;;22.02;18.27;;;11.90;99.90;;;;;;5022716;28;20461;-85
2024/03/21 04:33:13;;;;;;;23.67;19.48;;;11.90;99.90;;;;;;5041218;28;20036;-86
2024/03/21 04:35:42;;;;;;;22.63;19.65;;;11.90;99.90;;;;;;5041352;28;20025;-84
2024/03/21 04:38:08;;;;;;;23.30;18.35;;;11.90;99.90;;;;;;5025498;28;20021;-86
2024/03/21 04:40:34;;;;;;;24.23;18.50;;;11.90;99.90;;;;;;5040946;28;20054;-87
2024/03/21 04:43:00;;;;;;;23.48;17.30;;;11.80;99.90;;;;;;5022845;28;20120;-88
2024/03/21 04:45:26;;;;;;;20.63;15.23;;;11.80;99.90;;;;;;5022160;28;20384;-87
2024/03/21 04:47:51;;;;;;;19.48;15.35;;;11.80;99.90;;;;;;5038441;28;20029;-86
2024/03/21 04:50:18;;;;;;;17.27;13.80;;;11.80;99.90;;;;;;5022171;28;20029;-87
2024/03/21 04:52:44;;;;;;;15.70;11.75;;;11.70;99.90;;;;;;5040250;28;20029;-85
2024/03/21 04:55:10;;;;;;;16.33;10.45;;;11.70;99.90;;;;;;5034585;28;20023;-87
2024/03/21 04:57:37;;;;;;;11.75;9.77;;;11.60;99.90;;;;;;5044825;28;20028;-87
2024/03/21 05:00:10;;;;;;;10.85;8.43;;;11.50;99.90;;;;;;5045805;28;20021;-89
2024/03/21 05:02:37;;;;;;;9.30;7.88;;;11.50;99.90;;;;;;5062080;28;20052;-87
2024/03/21 05:05:06;;;;;;;9.27;6.63;;;11.40;99.90;;;;;;5061208;28;20029;-87
2024/03/21 05:07:33;;;;;;;6.68;5.97;;;11.30;99.90;;;;;;5031412;28;20100;-85
2024/03/21 05:10:02;;;;;;;7.15;5.97;;;11.20;99.90;;;;;;5034908;28;20116;-86
2024/03/21 05:12:31;;;;;;;6.25;4.90;;;11.30;99.90;;;;;;5052402;28;20049;-85
2024/03/21 05:14:56;;;;;;;4.70;4.22;;;11.20;99.90;;;;;;5028784;28;20029;-87
2024/03/21 05:17:24;;;;;;;6.32;4.70;;;11.20;99.90;;;;;;5037225;28;20123;-87
2024/03/21 05:19:50;;;;;;;5.57;4.43;;;11.10;99.90;;;;;;5021403;28;20515;-87
2024/03/21 05:22:16;;;;;;;3.92;3.50;;;11.10;99.90;;;;;;5019635;28;20037;-86
2024/03/21 05:24:41;;;;;;;4.47;3.78;;;11.10;99.90;;;;;;5021742;28;20040;-86
2024/03/21 05:27:09;;;;;;;3.92;3.55;;;11.10;99.90;;;;;;5021496;28;20473;-85
2024/03/21 05:29:35;;;;;;;4.47;3.42;;;11.00;99.90;;;;;;5021575;28;20037;-86
2024/03/21 05:32:10;;;;;;;4.38;3.08;;;11.00;99.90;;;;;;5037496;28;20456;-90
2024/03/21 05:34:36;;;;;;;3.97;3.13;;;11.00;99.90;;;;;;5038866;28;20112;-88
2024/03/21 05:37:01;;;;;;;4.25;2.83;;;10.90;99.90;;;;;;5021535;28;20114;-89
2024/03/21 05:39:27;;;;;;;4.32;3.15;;;10.90;99.90;;;;;;5021477;28;20056;-88
2024/03/21 05:41:53;;;;;;;4.00;3.47;;;10.80;99.90;;;;;;5037972;28;20099;-87
2024/03/21 05:44:18;;;;;;;4.28;3.53;;;10.80;99.90;;;;;;5038068;28;20036;-88
2024/03/21 05:46:44;;;;;;;3.30;3.00;;;10.70;99.90;;;;;;5021140;28;20063;-88
2024/03/21 05:49:12;;;;;;;4.63;3.33;;;10.70;99.90;;;;;;5037869;28;20530;-88
2024/03/21 05:51:38;;;;;;;4.30;3.90;;;10.70;99.90;;;;;;5021926;28;20061;-89
2024/03/21 05:54:06;;;;;;;4.97;3.90;;;10.70;99.90;;;;;;5037515;28;20025;-86
2024/03/21 05:56:35;;;;;;;4.72;4.22;;;10.70;99.90;;;;;;5021174;28;20021;-86
2024/03/21 05:59:02;;;;;;;5.55;5.03;;;10.70;99.90;;;;;;5055723;28;20036;-85
2024/03/21 06:01:33;;;;;;;6.68;5.32;;;10.60;99.90;;;;;;5038182;28;20483;-85
2024/03/21 06:04:02;;;;;;;6.45;5.63;;;10.60;99.90;;;;;;5048063;28;20033;-86
2024/03/21 06:06:28;;;;;;;5.85;5.35;;;10.50;99.90;;;;;;5048987;28;20033;-85
2024/03/21 06:08:56;;;;;;;6.47;5.70;;;10.50;99.90;;;;;;5045402;28;20052;-85
2024/03/21 06:11:22;;;;;;;8.90;6.85;;;10.50;99.90;;;;;;5042631;28;20033;-86
2024/03/21 06:13:49;;;;;;;6.78;6.13;;;10.50;99.90;;;;;;5036852;28;20024;-87
2024/03/21 06:16:15;;;;;;;6.90;5.97;;;10.50;99.90;;;;;;5037272;28;20025;-86
2024/03/21 06:18:41;;;;;;;7.63;6.18;;;10.50;99.90;;;;;;5016745;28;20050;-86
2024/03/21 06:21:06;;;;;;;5.70;5.13;;;10.50;99.90;;;;;;5033660;28;20040;-87
2024/03/21 06:23:32;;;;;;;5.50;5.00;;;10.50;99.90;;;;;;5017530;28;20029;-87
2024/03/21 06:25:57;;;;;;;7.75;4.18;;;10.50;99.90;;;;;;5018040;28;20030;-86
2024/03/21 06:28:23;;;;;;;4.07;3.22;;;10.50;99.90;;;;;;5048097;28;20032;-82
2024/03/21 06:30:49;;;;;;;5.30;2.92;;;10.40;99.90;;;;;;5040505;28;20010;-86
2024/03/21 06:33:14;;;;;;;5.03;2.03;;;10.40;99.90;;;;;;5058250;28;20029;-82
2024/03/21 06:35:41;;;;;;;3.47;2.10;;;10.40;99.90;;;;;;5061131;28;20029;-85
2024/03/21 06:38:07;;;;;;;6.57;1.70;;;10.40;99.90;;;;;;5029350;28;20057;-84
2024/03/21 06:40:33;;;;;;;3.38;1.30;;;10.40;99.90;;;;;;5021257;28;20034;-84
2024/03/21 06:43:02;;;;;;;3.63;1.50;;;10.40;99.90;;;;;;5020974;28;20133;-86
2024/03/21 06:45:27;;;;;;;3.83;1.20;;;10.30;99.90;;;;;;5020862;28;20477;-86
2024/03/21 06:47:53;;;;;;;4.57;1.48;;;10.20;99.90;;;;;;5020909;28;20036;-85
2024/03/21 06:50:19;;;;;;;4.95;1.48;;;10.10;99.90;;;;;;5021122;28;20060;-86
2024/03/21 06:52:47;;;;;;;4.70;1.42;;;10.00;99.90;;;;;;5037826;28;20021;-85
2024/03/21 06:55:14;;;;;;;5.28;1.30;;;10.00;99.90;;;;;;5038470;28;20076;-85
2024/03/21 06:57:44;;;;;;;3.58;1.00;;;10.00;99.90;;;;;;5038658;28;20113;-86
2024/03/21 07:00:13;;;;;;;4.00;1.40;;;9.90;99.90;;;;;;5021241;28;20025;-85
2024/03/21 07:02:39;;;;;;;3.67;1.20;;;9.90;99.90;;;;;;5020832;28;20037;-85
2024/03/21 07:05:09;;;;;;;4.43;1.20;;;10.00;99.90;;;;;;5036764;28;20489;-86
2024/03/21 07:07:35;;;;;;;5.15;1.13;;;10.00;99.90;;;;;;5036712;28;20029;-86
2024/03/21 07:10:02;;;;;;;2.63;0.98;;;10.10;99.90;;;;;;5037164;28;20044;-85
2024/03/21 07:12:28;;;;;;;4.15;1.33;;;10.10;99.90;;;;;;5020138;28;20029;-86
2024/03/21 07:14:54;;;;;;;3.47;1.23;;;10.00;99.90;;;;;;5036847;28;20029;-86
2024/03/21 07:17:20;;;;;;;4.78;1.50;;;10.00;99.90;;;;;;5020200;28;20119;-83
2024/03/21 07:19:46;;;;;;;3.38;1.10;;;10.00;99.90;;;;;;5019575;28;20115;-86
2024/03/21 07:22:12;;;;;;;2.67;1.10;;;10.00;99.90;;;;;;5036898;28;20030;-86
2024/03/21 07:24:38;;;;;;;3.63;1.05;;;10.10;99.90;;;;;;5036346;28;20033;-84
2024/03/21 07:27:04;;;;;;;3.33;1.10;;;10.10;99.90;;;;;;5036139;28;20120;-85
2024/03/21 07:29:30;;;;;;;4.47;1.10;;;10.20;99.90;;;;;;5036094;28;20036;-87
2024/03/21 07:31:56;;;;;;;6.15;1.52;;;10.30;99.90;;;;;;5036234;28;20473;-84
2024/03/21 07:34:23;;;;;;;3.72;1.17;;;10.40;99.90;;;;;;5019967;28;20060;-85
2024/03/21 07:36:49;;;;;;;2.80;1.00;;;10.40;99.90;;;;;;5037328;28;20037;-85
2024/03/21 07:39:14;;;;;;;4.28;1.00;;;10.40;99.90;;;;;;5035885;28;20034;-86
2024/03/21 07:41:40;;;;;;;5.50;1.17;;;10.40;99.90;;;;;;5019475;28;20469;-86
2024/03/21 07:44:07;;;;;;;8.25;1.83;;;10.40;99.90;;;;;;5035714;28;20040;-86
2024/03/21 07:46:34;;;;;;;4.38;1.40;;;10.40;99.90;;;;;;5035273;28;20061;-86
2024/03/21 07:49:01;;;;;;;5.40;1.15;;;10.40;99.90;;;;;;5035907;28;20037;-86
2024/03/21 07:51:27;;;;;;;6.55;2.03;;;10.30;99.90;;;;;;5036146;28;20030;-85
2024/03/21 07:53:55;;;;;;;3.85;0.90;;;10.30;99.90;;;;;;5019599;28;20036;-85
2024/03/21 07:56:21;;;;;;;4.30;1.15;;;10.40;99.90;;;;;;5037597;28;20021;-85
2024/03/21 07:58:46;;;;;;;3.88;0.90;;;10.50;99.90;;;;;;5036796;28;20016;-85
2024/03/21 08:01:12;;;;;;;4.35;1.25;;;10.50;99.90;;;;;;5059914;28;20017;-84
2024/03/21 08:03:38;;;;;;;5.57;1.25;;;10.50;99.90;;;;;;5043356;28;20013;-85
2024/03/21 08:06:04;;;;;;;3.80;1.00;;;10.50;99.90;;;;;;5060132;28;20014;-85
2024/03/21 08:08:29;;;;;;;7.20;1.33;;;10.60;99.90;;;;;;5041330;28;20025;-86
2024/03/21 08:10:55;;;;;;;5.45;1.63;;;10.50;99.90;;;;;;5035765;28;20065;-85
2024/03/21 08:13:20;;;;;;;3.75;1.00;;;10.60;99.90;;;;;;5019379;28;20362;-85
2024/03/21 08:15:47;;;;;;;3.10;1.50;;;10.70;99.90;;;;;;5018735;28;20048;-86
2024/03/21 08:18:12;;;;;;;3.58;1.05;;;10.70;99.90;;;;;;5036282;28;20465;-85
2024/03/21 08:20:38;;;;;;;2.92;0.82;;;10.80;99.90;;;;;;5038584;28;20025;-86
2024/03/21 08:23:03;;;;;;;3.90;1.10;;;10.80;99.90;;;;;;5022362;28;20108;-86
2024/03/21 08:25:29;;;;;;;4.25;1.42;;;10.80;99.90;;;;;;5022130;28;20021;-88
2024/03/21 08:27:55;;;;;;;3.17;1.15;;;10.90;99.90;;;;;;5038298;28;20124;-86
2024/03/21 08:30:20;;;;;;;8.02;1.38;;;11.00;99.90;;;;;;5038406;28;20362;-84
2024/03/21 08:32:46;;;;;;;4.05;1.00;;;11.00;99.90;;;;;;5037845;28;20029;-86
2024/03/21 08:35:11;;;;;;;3.67;1.13;;;11.10;99.90;;;;;;5038392;28;20051;-86
2024/03/21 08:37:37;;;;;;;3.90;1.30;;;11.10;99.90;;;;;;5021625;28;20029;-86
2024/03/21 08:40:06;;;;;;;3.35;1.05;;;11.10;99.90;;;;;;5038616;28;20057;-85
2024/03/21 08:42:32;;;;;;;2.40;0.82;;;11.00;99.90;;;;;;5021652;28;20037;-85
2024/03/21 08:44:58;;;;;;;5.20;1.52;;;11.00;99.90;;;;;;5021576;28;20074;-85
2024/03/21 08:47:24;;;;;;;4.22;1.40;;;11.10;99.90;;;;;;5021991;28;20033;-84
2024/03/21 08:49:49;;;;;;;3.20;1.10;;;11.10;99.90;;;;;;5021708;28;20140;-84
2024/03/21 08:52:15;;;;;;;4.40;1.10;;;11.20;99.90;;;;;;5038689;28;20483;-83
2024/03/21 08:54:41;;;;;;;4.65;1.13;;;11.20;99.90;;;;;;5022505;28;20021;-85
2024/03/21 08:57:06;;;;;;;5.13;1.65;;;11.30;99.90;;;;;;5058896;28;20025;-86
2024/03/21 08:59:32;;;;;;;4.53;1.65;;;11.20;99.90;;;;;;5037899;28;20029;-86
2024/03/21 09:01:58;;;;;;;4.38;1.20;;;11.30;99.90;;;;;;5038209;28;20033;-86
2024/03/21 09:04:23;;;;;;;5.82;1.15;;;11.30;99.90;;;;;;5056378;28;20025;-86
2024/03/21 09:06:49;;;;;;;3.17;1.02;;;11.30;99.90;;;;;;5056691;28;20052;-85
2024/03/21 09:09:16;;;;;;;3.45;1.15;;;11.30;99.90;;;;;;5056199;28;20029;-86
2024/03/21 09:11:43;;;;;;;4.20;1.40;;;11.30;99.90;;;;;;5052799;28;20025;-86
2024/03/21 09:14:08;;;;;;;3.95;1.02;;;11.30;99.90;;;;;;5053421;28;20053;-86
2024/03/21 09:16:34;;;;;;;4.32;1.42;;;11.40;99.90;;;;;;5074050;28;20029;-84
2024/03/21 09:18:59;;;;;;;5.28;1.52;;;11.40;99.90;;;;;;5054418;28;20060;-85
2024/03/21 09:21:25;;;;;;;4.47;1.23;;;11.50;99.90;;;;;;5035501;28;20029;-85
2024/03/21 09:23:51;;;;;;;5.63;1.40;;;11.50;99.90;;;;;;5029223;28;20041;-86
2024/03/21 09:26:17;;;;;;;4.15;1.30;;;11.40;99.90;;;;;;5022658;28;20029;-86
2024/03/21 09:28:43;;;;;;;3.25;1.50;;;11.50;99.90;;;;;;5029932;28;20037;-87
2024/03/21 09:31:09;;;;;;;3.00;1.20;;;11.60;99.90;;;;;;5044249;28;20051;-85
2024/03/21 09:33:34;;;;;;;5.22;1.20;;;11.60;99.90;;;;;;5061600;28;20017;-83
2024/03/21 09:36:08;;;;;;;3.55;1.23;;;11.70;99.90;;;;;;5044546;28;20054;-85
2024/03/21 09:38:36;;;;;;;4.10;1.27;;;11.70;99.90;;;;;;5053594;28;20060;-81
2024/03/21 09:41:09;;;;;;;3.60;1.30;;;11.70;99.90;;;;;;5039900;28;20096;-84
2024/03/21 09:43:36;;;;;;;4.10;1.40;;;11.80;99.90;;;;;;5022668;28;20461;-83
2024/03/21 09:46:04;;;;;;;5.20;1.50;;;11.80;99.90;;;;;;5024764;28;20025;-87
2024/03/21 09:48:30;;;;;;;5.88;1.50;;;11.80;99.90;;;;;;5042632;28;20036;-84
2024/03/21 09:50:57;;;;;;;5.30;1.40;;;11.90;99.90;;;;;;5042707;28;20066;-86
2024/03/21 09:53:23;;;;;;;3.83;1.50;;;11.90;99.90;;;;;;5043606;28;20031;-86
2024/03/21 09:55:48;;;;;;;3.53;1.52;;;12.00;99.90;;;;;;5045441;28;20051;-85
2024/03/21 09:58:16;;;;;;;4.88;1.35;;;12.10;99.90;;;;;;5043064;28;20078;-85
2024/03/21 10:00:43;;;;;;;3.42;1.60;;;12.10;99.90;;;;;;5042935;28;20025;-85
2024/03/21 10:03:13;;;;;;;3.78;1.33;;;12.10;99.90;;;;;;5055242;28;20053;-86
2024/03/21 10:05:45;;;;;;;4.18;1.60;;;12.10;99.90;;;;;;5054764;28;20489;-85
2024/03/21 10:08:11;;;;;;;9.30;3.95;;;12.30;99.90;;;;;;5019864;28;20125;-86
2024/03/21 10:10:37;;;;;;;8.13;3.20;;;12.40;99.90;;;;;;5036944;28;20465;-86
2024/03/21 10:13:03;;;;;;;6.70;3.15;;;12.50;99.90;;;;;;5036962;28;20044;-86
2024/03/21 10:15:32;;;;;;;6.03;2.55;;;12.60;99.90;;;;;;5019749;28;20115;-85
2024/03/21 10:17:59;;;;;;;3.70;2.15;;;12.70;99.90;;;;;;5054216;28;20068;-85
2024/03/21 10:20:25;;;;;;;4.95;1.80;;;12.80;99.90;;;;;;5036136;28;20053;-86
2024/03/21 10:22:52;;;;;;;3.05;1.80;;;12.80;99.90;;;;;;5019416;28;20391;-86
2024/03/21 10:25:19;;;;;;;4.88;1.60;;;12.90;99.90;;;;;;5020495;28;20075;-85
2024/03/21 10:27:46;;;;;;;3.13;1.60;;;12.90;99.90;;;;;;5036254;28;20025;-84
2024/03/21 10:30:20;;;;;;;3.95;1.92;;;12.90;99.90;;;;;;5036585;28;20029;-85
2024/03/21 10:32:47;;;;;;;4.93;1.80;;;12.90;99.90;;;;;;5020358;28;20022;-86
2024/03/21 10:35:17;;;;;;;4.55;1.35;;;12.90;99.90;;;;;;5036221;28;20021;-85
2024/03/21 10:37:44;;;;;;;3.97;1.88;;;13.00;99.90;;;;;;5054082;28;20033;-86
2024/03/21 10:40:14;;;;;;;4.78;1.70;;;13.00;99.90;;;;;;5053746;28;20036;-85
2024/03/21 10:42:52;;;;;;;4.43;1.58;;;13.10;99.90;;;;;;5019845;28;20049;-84
2024/03/21 10:45:19;;;;;;;3.13;1.42;;;13.20;99.90;;;;;;5054230;28;20036;-84
2024/03/21 10:47:51;;;;;;;3.33;1.90;;;13.20;99.90;;;;;;5035857;28;20377;-85
2024/03/21 10:50:23;;;;;;;4.70;1.90;;;13.30;99.90;;;;;;5036281;28;20037;-85
2024/03/21 10:52:53;;;;;;;3.45;1.60;;;13.40;99.90;;;;;;5053806;28;20037;-86
2024/03/21 10:55:20;;;;;;;6.45;1.70;;;13.40;99.90;;;;;;5019957;28;20025;-86
2024/03/21 10:57:50;;;;;;;6.32;1.67;;;13.40;99.90;;;;;;5054230;28;20053;-84
2024/03/21 11:00:20;;;;;;;5.60;1.63;;;13.30;99.90;;;;;;5036601;28;20028;-85
2024/03/21 11:02:52;;;;;;;4.70;1.60;;;13.30;99.90;;;;;;5036470;28;20013;-85
2024/03/21 11:05:22;;;;;;;4.40;1.75;;;13.30;99.90;;;;;;5065902;28;20036;-84
2024/03/21 11:07:47;;;;;;;4.28;1.77;;;13.30;99.90;;;;;;5077528;28;20010;-83
2024/03/21 11:10:18;;;;;;;4.63;1.33;;;13.40;99.90;;;;;;5044023;28;20043;-85
2024/03/21 11:12:48;;;;;;;7.13;1.90;;;13.40;99.90;;;;;;5044047;28;20020;-85
2024/03/21 11:15:14;;;;;;;3.67;1.75;;;13.50;99.90;;;;;;5063746;28;20025;-84
2024/03/21 11:17:40;;;;;;;3.92;1.42;;;13.60;99.90;;;;;;5036216;28;20033;-86
2024/03/21 11:20:10;;;;;;;4.32;1.70;;;13.60;99.90;;;;;;5020681;28;20484;-86
2024/03/21 11:22:44;;;;;;;4.97;1.60;;;13.70;99.90;;;;;;5040003;28;20154;-84
2024/03/21 11:25:13;;;;;;;5.75;1.77;;;13.80;99.90;;;;;;5040688;28;20017;-84
2024/03/21 11:27:41;;;;;;;3.97;1.77;;;13.80;99.90;;;;;;5040643;28;20029;-84
2024/03/21 11:30:08;;;;;;;4.78;1.65;;;13.80;99.90;;;;;;5040808;28;20064;-84
2024/03/21 11:32:34;;;;;;;6.22;1.60;;;13.80;99.90;;;;;;5023758;28;20538;-85
2024/03/21 11:35:00;;;;;;;7.60;1.65;;;13.90;99.90;;;;;;5023213;28;20033;-86
2024/03/21 11:37:25;;;;;;;3.47;1.50;;;13.90;99.90;;;;;;5022678;28;20037;-85
2024/03/21 11:39:51;;;;;;;5.63;1.88;;;13.80;99.90;;;;;;5022752;28;20040;-84
2024/03/21 11:42:19;;;;;;;5.07;1.65;;;13.80;99.90;;;;;;5038997;28;20124;-85
2024/03/21 11:44:46;;;;;;;5.22;2.00;;;13.80;99.90;;;;;;5039606;28;20119;-83
2024/03/21 11:47:13;;;;;;;6.13;1.90;;;13.90;99.90;;;;;;5056637;28;20025;-85
2024/03/21 11:49:50;;;;;;;5.30;1.63;;;13.90;99.90;;;;;;5038842;28;20029;-84
2024/03/21 11:52:17;;;;;;;5.38;1.52;;;13.90;99.90;;;;;;5039083;28;20025;-84
2024/03/21 11:54:43;;;;;;;3.90;1.60;;;13.90;99.90;;;;;;5039177;28;20021;-85
2024/03/21 11:57:13;;;;;;;4.88;1.55;;;13.80;99.90;;;;;;5056798;28;20027;-85
2024/03/21 11:59:42;;;;;;;4.30;1.77;;;13.80;99.90;;;;;;5056934;28;20071;-85
2024/03/21 12:02:16;;;;;;;5.10;1.60;;;13.90;99.90;;;;;;5022739;28;20082;-85
2024/03/21 12:04:42;;;;;;;4.57;1.75;;;13.90;99.90;;;;;;5056810;28;20025;-85
2024/03/21 12:07:10;;;;;;;5.75;1.50;;;13.80;99.90;;;;;;5022323;28;20035;-85
2024/03/21 12:09:36;;;;;;;3.50;1.80;;;13.80;99.90;;;;;;5038649;28;20370;-85
2024/03/21 12:12:02;;;;;;;5.40;1.65;;;13.90;99.90;;;;;;5039913;28;20447;-84
2024/03/21 12:14:28;;;;;;;4.45;1.75;;;13.90;99.90;;;;;;5035113;28;20029;-83
2024/03/21 12:16:53;;;;;;;5.75;1.63;;;13.90;99.90;;;;;;5034077;28;20025;-85
2024/03/21 12:19:19;;;;;;;4.68;1.75;;;14.00;99.90;;;;;;5049330;28;20060;-86
2024/03/21 12:21:44;;;;;;;5.68;1.73;;;14.00;99.90;;;;;;5045369;28;20036;-85
2024/03/21 12:24:10;;;;;;;5.22;1.60;;;14.00;99.90;;;;;;5038942;28;20036;-85
2024/03/21 12:26:36;;;;;;;5.43;1.98;;;14.00;99.90;;;;;;5021805;28;20495;-85
2024/03/21 12:29:02;;;;;;;3.90;1.70;;;14.00;99.90;;;;;;5021830;28;20028;-86
2024/03/21 12:31:28;;;;;;;7.20;1.88;;;14.00;99.90;;;;;;5055745;28;20025;-85
2024/03/21 12:33:56;;;;;;;3.33;1.60;;;14.10;99.90;;;;;;5038391;28;20047;-82
2024/03/21 12:36:22;;;;;;;3.20;1.40;;;14.10;99.90;;;;;;5038903;28;20027;-84
2024/03/21 12:38:47;;;;;;;5.78;1.67;;;14.10;99.90;;;;;;5022233;28;20115;-84
2024/03/21 12:41:14;;;;;;;5.57;1.67;;;14.10;99.90;;;;;;5024206;28;20039;-85